Report METAR

 

LIMC - Milan/Malpensa Arpt, MI, Italy
Distance from station: SO 22km
Dati ricevuti: 20/06/2024 12:50
Pioviggine, Coperto
Pioviggine, Coperto
 Vento da NO
Vento: NO 20 km/h
Temperatura: 21°C
P.to Rugiada: 18°C
Umidità: 83%
Barometro: 1022 hPa
Condizioni: Pioviggine
Nuvole: Coperto
Visibility: 8 km
Cloud details: Parz. nuvoloso 1219 m
Molto nuvoloso 1829 m
Coperto 3048 m
2024/06/20 10:50 LIMC 201050Z 32011KT 8000 -RA SCT040 BKN060 OVC100 21/18 Q1022 NOSIG
LSZA - Lugano Arpt, TI, Switzerland
Distance from station: N 24km
Dati ricevuti: 20/06/2024 12:50
Pioggia, Nuvoloso
Pioggia, Nuvoloso
 Vento da Variabile
Vento: Variabile 2 km/h
Temperatura: 20°C
P.to Rugiada: 19°C
Umidità: 94%
Barometro: 1023 hPa
Condizioni: Pioggia
Nuvole: Molto nuvoloso
Visibility: 5 km
Cloud details: Few Clouds 1524 m
Molto nuvoloso 1829 m
Molto nuvoloso 2134 m
2024/06/20 10:50 LSZA 201050Z AUTO VRB01KT 5000 RA FEW050 BKN060 BKN070 20/19 Q1023
LIMN - Cameri(AFB), NO, Italy
Distance from station: SSO 34km
Dati ricevuti: 20/06/2024 12:55
Pioggia, Parz. nuvoloso
Pioggia, Parz. nuvoloso
 Vento da NNO
Vento: NNO 11 km/h
Temperatura: 22°C
P.to Rugiada: 22°C
Umidità: 100%
Barometro: 1020 hPa
Condizioni: Pioggia
Nuvole: Parz. nuvoloso
Visibility: 5 km
Cloud details: Few Clouds 457 m
Parz. nuvoloso 762 m
2024/06/20 10:55 LIMN 201055Z 33006KT 5000 RA FEW015 SCT025 22/22 Q1020
 
LSZL - Locarno Arpt, TI, Switzerland
Distance from station: N 42km
Dati ricevuti: 20/06/2024 12:50
Pioggia, Coperto
Pioggia, Coperto
 Vento da calmo
Vento: Calma
Temperatura: 21°C
P.to Rugiada: 20°C
Umidità: 94%
Barometro: 1023 hPa
Condizioni: Pioggia
Nuvole: Coperto
Visibility: 4 km
Cloud details: Few Clouds 518 m
Coperto 2134 m
2024/06/20 10:50 LSZL 201050Z 00000KT 4300 RA FEW017 OVC070 21/20 Q1023 RMK GRN
LIML - Milan/Linate Arpt, MI, Italy
Distance from station: SE 46km
Dati ricevuti: 20/06/2024 12:50
Pioviggine, Nuvoloso
Pioviggine, Nuvoloso
 Vento da O
Vento: O 20 km/h, Raffica: 39 km/h
Temperatura: 26°C
P.to Rugiada: 19°C
Umidità: 65%
Barometro: 1021 hPa
Condizioni: Pioviggine
Nuvole: Molto nuvoloso
Visibility: 10 km
Cloud details: Few Clouds 914 m
Molto nuvoloso 2438 m
2024/06/20 10:50 LIML 201050Z 27011G21KT 250V310 9999 -RA FEW030 BKN080 26/19 Q1021 NOSIG
LIME - Bergamo/Orio Seno Arpt, BG, Italy
Distance from station: E 63km
Dati ricevuti: 20/06/2024 12:50
Molto nuvoloso
Molto nuvoloso
 Vento da SO
Vento: SO 20 km/h
Temperatura: 27°C
Indice di Calore: 28°C
P.to Rugiada: 19°C
Umidità: 62%
Barometro: 1020 hPa
Nuvole: Molto nuvoloso
Visibility: 10 km
Cloud details: Molto nuvoloso 2438 m
2024/06/20 10:50 LIME 201050Z 23011KT 9999 BKN080 27/19 Q1020 NOSIG
 
LIMH - Pian Rosà(MTN), AO, Italy
Distance from station: O 94km
Dati ricevuti: 20/06/2024 12:55

 Vento da SSO
Vento: SSO 61 km/h, Raffica: 83 km/h
2024/06/20 10:55 LIMH 201055Z AUTO 20033G45KT //// ///// Q//